createdAt,value
2018-09-25T00:00:14.400Z,102998.70
2018-09-25T00:03:24.018Z,103005.00
2018-09-25T00:06:33.680Z,103006.45
2018-09-25T00:09:43.231Z,103009.84
2018-09-25T00:12:52.863Z,103010.72
2018-09-25T00:16:02.414Z,103010.47
2018-09-25T00:19:12.198Z,103012.29
2018-09-25T00:22:21.725Z,103007.68
2018-09-25T00:25:31.359Z,103018.53
2018-09-25T00:28:40.891Z,103027.58
2018-09-25T00:31:50.426Z,103030.16
2018-09-25T00:35:00.092Z,103035.61
2018-09-25T00:38:09.583Z,103033.77
2018-09-25T00:41:19.314Z,103041.12
2018-09-25T00:44:28.907Z,103038.40
2018-09-25T00:47:38.606Z,103039.77
2018-09-25T00:50:48.230Z,103040.49
2018-09-25T00:53:57.652Z,103042.53
2018-09-25T00:57:07.144Z,103045.53
2018-09-25T01:00:16.716Z,103052.39
2018-09-25T01:03:26.299Z,103056.39
2018-09-25T01:06:35.946Z,103060.73
2018-09-25T01:09:45.475Z,103058.51
2018-09-25T01:12:54.960Z,103065.04
2018-09-25T01:16:04.429Z,103059.88
2018-09-25T01:19:13.979Z,103051.91
2018-09-25T01:22:23.439Z,103056.13
2018-09-25T01:25:32.955Z,103050.29
2018-09-25T01:28:42.448Z,103052.68
2018-09-25T01:31:51.893Z,103056.67
2018-09-25T01:35:01.472Z,103067.84
2018-09-25T01:38:11.063Z,103073.20
2018-09-25T01:41:20.741Z,103068.38
2018-09-25T01:44:30.368Z,103065.38
2018-09-25T01:47:40.004Z,103062.64
2018-09-25T01:50:49.621Z,103062.92
2018-09-25T01:53:59.183Z,103064.17
2018-09-25T01:57:08.872Z,103068.77
2018-09-25T02:00:18.405Z,103070.77
2018-09-25T02:03:28.037Z,103073.42
2018-09-25T02:06:37.673Z,103070.77
2018-09-25T02:09:47.207Z,103080.09
2018-09-25T02:12:56.799Z,103080.95
2018-09-25T02:16:06.445Z,103085.80
2018-09-25T02:19:16.169Z,103084.14
2018-09-25T02:22:25.669Z,103088.38
2018-09-25T02:25:35.132Z,103097.89
2018-09-25T02:28:44.739Z,103099.46
2018-09-25T02:31:54.235Z,103092.98
2018-09-25T02:35:03.717Z,103106.31
2018-09-25T02:38:13.326Z,103109.98
2018-09-25T02:41:22.990Z,103114.53
2018-09-25T02:44:32.638Z,103116.99
2018-09-25T02:47:42.197Z,103123.85
2018-09-25T02:50:51.600Z,103125.02
2018-09-25T02:54:01.257Z,103130.19
2018-09-25T02:57:10.916Z,103132.44
2018-09-25T03:00:20.557Z,103134.31
2018-09-25T03:03:30.620Z,103127.52
2018-09-25T03:06:40.262Z,103135.14
2018-09-25T03:09:49.793Z,103140.98
2018-09-25T03:12:59.429Z,103138.98
2018-09-25T03:16:09.107Z,103137.75
2018-09-25T03:19:18.763Z,103134.15
2018-09-25T03:22:28.392Z,103135.31
2018-09-25T03:25:37.964Z,103147.73
2018-09-25T03:28:47.586Z,103135.44
2018-09-25T03:31:57.046Z,103137.41
2018-09-25T03:35:06.674Z,103139.41
2018-09-25T03:38:16.227Z,103134.92
2018-09-25T03:41:25.819Z,103136.00
2018-09-25T03:44:35.347Z,103140.05
2018-09-25T03:47:45.033Z,103136.45
2018-09-25T03:50:54.594Z,103139.59
2018-09-25T03:54:04.140Z,103152.01
2018-09-25T03:57:13.876Z,103154.98
2018-09-25T04:00:23.437Z,103167.28
2018-09-25T04:03:32.888Z,103165.47
2018-09-25T04:06:42.388Z,103161.66
2018-09-25T04:09:51.838Z,103161.54
2018-09-25T04:13:01.304Z,103172.72
2018-09-25T04:16:10.728Z,103174.28
2018-09-25T04:19:20.239Z,103175.08
2018-09-25T04:22:29.793Z,103181.28
2018-09-25T04:25:39.270Z,103186.45
2018-09-25T04:28:48.797Z,103191.91
2018-09-25T04:31:58.230Z,103198.11
2018-09-25T04:35:07.881Z,103196.16
2018-09-25T04:38:17.439Z,103203.63
2018-09-25T04:41:27.076Z,103203.48
2018-09-25T04:44:36.669Z,103206.06
2018-09-25T04:47:46.274Z,103201.44
2018-09-25T04:50:55.756Z,103202.52
2018-09-25T04:54:05.286Z,103202.78
2018-09-25T04:57:14.901Z,103211.59
2018-09-25T05:00:28.247Z,103210.97
2018-09-25T05:03:37.874Z,103201.09
2018-09-25T05:06:47.418Z,103194.95
2018-09-25T05:09:56.971Z,103197.97
2018-09-25T05:13:06.623Z,103200.20
2018-09-25T05:16:16.268Z,103195.30
2018-09-25T05:19:25.908Z,103199.18
2018-09-25T05:22:35.557Z,103200.34
2018-09-25T05:25:44.957Z,103213.91
2018-09-25T05:28:54.434Z,103212.78
2018-09-25T05:32:03.968Z,103213.45
2018-09-25T05:35:13.409Z,103217.19
2018-09-25T05:38:22.912Z,103224.56
2018-09-25T05:41:32.514Z,103229.28
2018-09-25T05:44:42.039Z,103226.14
2018-09-25T05:47:51.615Z,103230.94
2018-09-25T05:51:01.064Z,103233.48
2018-09-25T05:54:10.683Z,103238.83
2018-09-25T05:57:20.333Z,103245.82
2018-09-25T06:00:29.976Z,103250.23
2018-09-25T06:03:39.628Z,103249.92
2018-09-25T06:06:49.265Z,103253.17
2018-09-25T06:09:58.817Z,103252.98
2018-09-25T06:13:08.375Z,103257.52
2018-09-25T06:16:18.000Z,103263.38
2018-09-25T06:19:27.684Z,103262.12
2018-09-25T06:22:37.395Z,103270.08
2018-09-25T06:25:46.985Z,103272.02
2018-09-25T06:28:56.609Z,103268.55
2018-09-25T06:32:06.231Z,103270.15
2018-09-25T06:35:15.886Z,103276.55
2018-09-25T06:38:25.454Z,103278.41
2018-09-25T06:41:35.075Z,103281.18
2018-09-25T06:44:44.633Z,103287.43
2018-09-25T06:47:54.266Z,103282.42
2018-09-25T06:51:03.733Z,103290.23
2018-09-25T06:54:13.368Z,103290.47
2018-09-25T06:57:22.911Z,103290.42
2018-09-25T07:00:32.473Z,103293.16
2018-09-25T07:03:42.087Z,103295.46
2018-09-25T07:06:51.735Z,103301.27
2018-09-25T07:10:01.576Z,103300.09
2018-09-25T07:13:10.942Z,103305.77
2018-09-25T07:16:20.578Z,103306.08
2018-09-25T07:19:30.223Z,103308.67
2018-09-25T07:22:39.930Z,103312.14
2018-09-25T07:25:49.530Z,103309.81
2018-09-25T07:28:59.104Z,103321.76
2018-09-25T07:32:08.828Z,103321.81
2018-09-25T07:35:18.431Z,103320.27
2018-09-25T07:38:28.010Z,103329.98
2018-09-25T07:41:37.665Z,103329.05
2018-09-25T07:44:47.284Z,103342.70
2018-09-25T07:47:58.042Z,103346.13
2018-09-25T07:51:07.601Z,103342.50
2018-09-25T07:54:17.257Z,103346.19
2018-09-25T07:57:26.898Z,103352.31
2018-09-25T08:00:36.541Z,103351.76
2018-09-25T08:03:46.219Z,103351.76
2018-09-25T08:06:55.770Z,103363.39
2018-09-25T08:10:05.396Z,103353.10
2018-09-25T08:13:15.015Z,103361.77
2018-09-25T08:16:24.599Z,103362.48
2018-09-25T08:19:34.247Z,103367.89
2018-09-25T08:22:43.699Z,103364.12
2018-09-25T08:25:53.206Z,103371.23
2018-09-25T08:29:02.752Z,103375.51
2018-09-25T08:32:12.392Z,103376.35
2018-09-25T08:35:22.049Z,103385.80
2018-09-25T08:38:31.711Z,103387.28
2018-09-25T08:41:41.217Z,103389.89
2018-09-25T08:44:50.923Z,103386.51
2018-09-25T08:48:00.633Z,103391.25
2018-09-25T08:51:10.242Z,103394.89
2018-09-25T08:54:19.958Z,103394.89
2018-09-25T08:57:29.586Z,103396.71
2018-09-25T09:00:39.234Z,103400.37
2018-09-25T09:03:48.862Z,103402.09
2018-09-25T09:06:59.447Z,103405.98
2018-09-25T09:10:09.094Z,103399.33
2018-09-25T09:13:18.737Z,103403.70
2018-09-25T09:16:28.384Z,103404.44
2018-09-25T09:19:38.040Z,103406.02
2018-09-25T09:22:47.649Z,103407.31
2018-09-25T09:25:57.265Z,103407.55
2018-09-25T09:29:06.863Z,103409.64
2018-09-25T09:32:16.495Z,103414.23
2018-09-25T09:35:26.036Z,103419.19
2018-09-25T09:38:35.706Z,103426.54
2018-09-25T09:41:45.350Z,103429.39
2018-09-25T09:44:54.800Z,103427.52
2018-09-25T09:48:04.521Z,103433.78
2018-09-25T09:51:14.175Z,103438.81
2018-09-25T09:54:23.835Z,103437.19
2018-09-25T09:57:33.479Z,103438.19
2018-09-25T10:00:43.099Z,103436.64
2018-09-25T10:03:52.673Z,103427.56
2018-09-25T10:07:02.243Z,103430.06
2018-09-25T10:10:11.867Z,103427.42
2018-09-25T10:13:21.487Z,103423.48
2018-09-25T10:16:31.064Z,103435.05
2018-09-25T10:19:40.536Z,103426.28
2018-09-25T10:22:50.029Z,103419.83
2018-09-25T10:25:59.572Z,103424.13
2018-09-25T10:29:09.217Z,103425.12
2018-09-25T10:32:18.880Z,103417.83
2018-09-25T10:35:28.415Z,103413.70
2018-09-25T10:38:37.990Z,103414.34
2018-09-25T10:41:47.720Z,103414.92
2018-09-25T10:44:57.338Z,103407.71
2018-09-25T10:48:06.987Z,103404.88
2018-09-25T10:51:16.546Z,103399.84
2018-09-25T10:54:26.110Z,103406.55
2018-09-25T10:57:35.685Z,103409.36
2018-09-25T11:00:45.143Z,103407.30
2018-09-25T11:03:54.724Z,103405.00
2018-09-25T11:07:04.384Z,103415.20
2018-09-25T11:10:14.112Z,103408.31
2018-09-25T11:13:23.701Z,103406.88
2018-09-25T11:16:33.167Z,103411.39
2018-09-25T11:19:42.757Z,103405.87
2018-09-25T11:22:52.144Z,103404.41
2018-09-25T11:26:01.740Z,103397.52
2018-09-25T11:29:11.630Z,103397.68
2018-09-25T11:32:21.324Z,103392.30
2018-09-25T11:35:30.965Z,103389.30
2018-09-25T11:38:40.563Z,103394.69
2018-09-25T11:41:50.169Z,103391.52
2018-09-25T11:44:59.807Z,103396.15
2018-09-25T11:48:09.439Z,103391.72
2018-09-25T11:51:19.052Z,103391.35
2018-09-25T11:54:28.619Z,103389.72
2018-09-25T11:57:38.141Z,103385.04
2018-09-25T12:00:47.585Z,103386.09
2018-09-25T12:03:57.516Z,103375.66
2018-09-25T12:07:07.223Z,103378.69
2018-09-25T12:10:16.829Z,103361.58
2018-09-25T12:13:26.457Z,103356.97
2018-09-25T12:16:36.089Z,103368.89
2018-09-25T12:19:45.778Z,103375.57
2018-09-25T12:22:55.274Z,103363.59
2018-09-25T12:26:04.915Z,103360.30
2018-09-25T12:29:14.546Z,103367.45
2018-09-25T12:32:24.259Z,103359.45
2018-09-25T12:35:33.855Z,103361.63
2018-09-25T12:38:43.534Z,103357.88
2018-09-25T12:41:53.244Z,103353.48
2018-09-25T12:45:02.872Z,103358.26
2018-09-25T12:48:12.543Z,103353.54
2018-09-25T12:51:22.152Z,103354.78
2018-09-25T12:54:31.609Z,103345.69
2018-09-25T12:57:40.999Z,103337.78
2018-09-25T13:00:50.617Z,103331.45
2018-09-25T13:04:00.293Z,103329.66
2018-09-25T13:07:10.194Z,103329.38
2018-09-25T13:10:20.910Z,103327.99
2018-09-25T13:13:30.397Z,103328.77
2018-09-25T13:16:39.978Z,103327.14
2018-09-25T13:19:49.557Z,103325.75
2018-09-25T13:22:59.143Z,103329.41
2018-09-25T13:26:08.728Z,103336.22
2018-09-25T13:29:18.279Z,103327.92
2018-09-25T13:32:27.888Z,103327.52
2018-09-25T13:35:37.492Z,103320.88
2018-09-25T13:38:47.171Z,103316.94
2018-09-25T13:41:56.758Z,103321.66
2018-09-25T13:45:06.405Z,103312.98
2018-09-25T13:48:16.135Z,103317.04
2018-09-25T13:51:25.762Z,103319.45
2018-09-25T13:54:35.136Z,103313.11
2018-09-25T13:57:44.667Z,103313.56
2018-09-25T14:00:54.228Z,103319.59
2018-09-25T14:04:03.718Z,103331.27
2018-09-25T14:07:13.275Z,103327.12
2018-09-25T14:10:22.837Z,103331.80
2018-09-25T14:13:32.484Z,103330.55
2018-09-25T14:16:42.114Z,103324.52
2018-09-25T14:19:51.782Z,103324.02
2018-09-25T14:23:01.322Z,103312.53
2018-09-25T14:26:10.959Z,103310.27
2018-09-25T14:29:20.504Z,103306.55
2018-09-25T14:32:30.139Z,103300.78
2018-09-25T14:35:39.828Z,103300.02
2018-09-25T14:38:49.376Z,103300.38
2018-09-25T14:41:58.977Z,103301.71
2018-09-25T14:45:08.280Z,103302.01
2018-09-25T14:48:17.880Z,103304.95
2018-09-25T14:51:27.517Z,103311.02
2018-09-25T14:54:37.283Z,103311.13
2018-09-25T14:57:46.797Z,103313.77
2018-09-25T15:00:56.349Z,103310.25
2018-09-25T15:04:05.904Z,103309.62
2018-09-25T15:07:15.578Z,103314.02
2018-09-25T15:10:25.259Z,103311.36
2018-09-25T15:13:34.941Z,103311.95
2018-09-25T15:16:44.451Z,103309.98
2018-09-25T15:19:54.042Z,103298.84
2018-09-25T15:23:03.771Z,103303.45
2018-09-25T15:26:13.295Z,103307.83
2018-09-25T15:29:22.829Z,103316.20
2018-09-25T15:32:32.289Z,103313.69
2018-09-25T15:35:41.803Z,103307.91
2018-09-25T15:38:51.300Z,103303.77
2018-09-25T15:42:00.961Z,103307.79
2018-09-25T15:45:10.588Z,103311.92
2018-09-25T15:48:20.205Z,103305.81
2018-09-25T15:51:29.865Z,103316.41
2018-09-25T15:54:39.393Z,103314.99
2018-09-25T15:57:48.977Z,103317.83
2018-09-25T16:00:58.614Z,103313.71
2018-09-25T16:04:08.237Z,103323.20
2018-09-25T16:07:17.795Z,103317.26
2018-09-25T16:10:27.208Z,103316.22
2018-09-25T16:13:36.756Z,103307.30
2018-09-25T16:16:46.425Z,103310.14
2018-09-25T16:19:56.077Z,103297.92
2018-09-25T16:23:05.728Z,103296.58
2018-09-25T16:26:15.401Z,103286.73
2018-09-25T16:29:25.008Z,103281.28
2018-09-25T16:32:34.840Z,103277.50
2018-09-25T16:35:44.467Z,103265.11
2018-09-25T16:38:53.975Z,103259.45
2018-09-25T16:42:03.589Z,103263.22
2018-09-25T16:45:13.250Z,103262.77
2018-09-25T16:48:22.880Z,103251.53
2018-09-25T16:51:32.494Z,103252.03
2018-09-25T16:54:42.074Z,103254.00
2018-09-25T16:57:51.673Z,103256.63
2018-09-25T17:01:01.302Z,103249.61
2018-09-25T17:04:10.867Z,103247.11
2018-09-25T17:07:20.477Z,103256.69
2018-09-25T17:10:30.120Z,103250.23
2018-09-25T17:13:39.745Z,103247.16
2018-09-25T17:16:49.735Z,103243.83
2018-09-25T17:19:59.305Z,103247.95
2018-09-25T17:23:08.990Z,103243.95
2018-09-25T17:26:18.543Z,103250.03
2018-09-25T17:29:28.175Z,103251.65
2018-09-25T17:32:37.599Z,103245.95
2018-09-25T17:35:47.176Z,103249.49
2018-09-25T17:38:56.828Z,103242.50
2018-09-25T17:42:06.468Z,103245.72
2018-09-25T17:45:16.000Z,103245.29
2018-09-25T17:48:25.678Z,103248.45
2018-09-25T17:51:35.247Z,103237.77
2018-09-25T17:54:44.916Z,103244.73
2018-09-25T17:57:54.519Z,103240.48
2018-09-25T18:01:03.932Z,103251.71
2018-09-25T18:04:13.591Z,103247.03
2018-09-25T18:07:23.166Z,103245.08
2018-09-25T18:10:32.772Z,103248.30
2018-09-25T18:13:42.332Z,103244.77
2018-09-25T18:16:51.805Z,103237.41
2018-09-25T18:20:01.550Z,103228.59
2018-09-25T18:23:11.090Z,103216.37
2018-09-25T18:26:20.681Z,103212.48
2018-09-25T18:29:30.273Z,103220.38
2018-09-25T18:32:39.910Z,103214.09
2018-09-25T18:35:49.582Z,103216.52
2018-09-25T18:38:59.290Z,103226.02
2018-09-25T18:42:08.980Z,103222.16
2018-09-25T18:45:18.541Z,103227.86
2018-09-25T18:48:35.217Z,103221.80
2018-09-25T18:51:44.844Z,103211.41
2018-09-25T18:54:54.402Z,103218.83
2018-09-25T18:58:04.039Z,103222.52
2018-09-25T19:01:13.666Z,103210.23
2018-09-25T19:04:23.296Z,103216.14
2018-09-25T19:07:32.755Z,103216.78
2018-09-25T19:10:42.505Z,103224.70
2018-09-25T19:13:52.191Z,103220.81
2018-09-25T19:17:01.810Z,103209.32
2018-09-25T19:20:11.390Z,103211.55
2018-09-25T19:23:20.959Z,103210.83
2018-09-25T19:26:30.686Z,103201.05
2018-09-25T19:29:40.291Z,103206.66
2018-09-25T19:32:49.836Z,103196.16
2018-09-25T19:35:59.428Z,103186.48
2018-09-25T19:39:09.048Z,103198.70
2018-09-25T19:42:18.643Z,103202.83
2018-09-25T19:45:28.362Z,103196.94
2018-09-25T19:48:37.983Z,103191.27
2018-09-25T19:51:47.514Z,103191.57
2018-09-25T19:54:57.178Z,103185.98
2018-09-25T19:58:06.922Z,103184.51
2018-09-25T20:01:16.416Z,103188.41
2018-09-25T20:04:26.015Z,103184.51
2018-09-25T20:07:35.633Z,103174.94
2018-09-25T20:10:45.259Z,103161.14
2018-09-25T20:13:54.830Z,103153.47
2018-09-25T20:17:04.368Z,103152.47
2018-09-25T20:20:14.138Z,103159.95
2018-09-25T20:23:23.622Z,103154.95
2018-09-25T20:26:33.224Z,103157.25
2018-09-25T20:29:42.769Z,103141.09
2018-09-25T20:32:52.399Z,103131.94
2018-09-25T20:36:02.057Z,103138.73
2018-09-25T20:39:12.594Z,103140.02
2018-09-25T20:42:22.189Z,103134.31
2018-09-25T20:45:31.835Z,103119.97
2018-09-25T20:48:41.369Z,103123.05
2018-09-25T20:51:51.004Z,103122.87
2018-09-25T20:55:00.450Z,103121.80
2018-09-25T20:58:10.018Z,103137.55
2018-09-25T21:01:19.668Z,103136.73
2018-09-25T21:04:29.197Z,103137.91
2018-09-25T21:07:38.664Z,103135.13
2018-09-25T21:10:48.133Z,103138.92
2018-09-25T21:13:57.591Z,103139.03
2018-09-25T21:17:07.113Z,103133.53
2018-09-25T21:20:16.779Z,103128.65
2018-09-25T21:23:26.247Z,103130.76
2018-09-25T21:26:36.348Z,103120.38
2018-09-25T21:29:45.649Z,103113.20
2018-09-25T21:32:55.177Z,103106.58
2018-09-25T21:36:04.803Z,103094.91
2018-09-25T21:39:15.587Z,103099.97
2018-09-25T21:42:25.392Z,103087.98
2018-09-25T21:45:34.986Z,103081.67
2018-09-25T21:48:44.660Z,103083.25
2018-09-25T21:51:54.397Z,103071.50
2018-09-25T21:55:04.030Z,103070.88
2018-09-25T21:58:13.726Z,103068.45
2018-09-25T22:01:23.229Z,103067.03
2018-09-25T22:04:32.872Z,103059.78
2018-09-25T22:07:42.537Z,103051.09
2018-09-25T22:10:52.021Z,103048.84
2018-09-25T22:14:01.672Z,103050.72
2018-09-25T22:17:11.193Z,103042.05
2018-09-25T22:20:20.674Z,103030.12
2018-09-25T22:23:30.329Z,103032.41
2018-09-25T22:26:39.972Z,103031.50
2018-09-25T22:29:49.621Z,103032.80
2018-09-25T22:32:59.460Z,103026.22
2018-09-25T22:36:09.081Z,103034.91
2018-09-25T22:39:18.736Z,103033.46
2018-09-25T22:42:28.271Z,103027.95
2018-09-25T22:45:37.873Z,103018.53
2018-09-25T22:48:47.546Z,103010.33
2018-09-25T22:51:57.284Z,103007.56
2018-09-25T22:55:06.889Z,103001.55
2018-09-25T22:58:16.527Z,103000.50
2018-09-25T23:01:26.165Z,102998.63
2018-09-25T23:04:35.827Z,102997.75
2018-09-25T23:07:45.412Z,102992.70
2018-09-25T23:10:54.972Z,102997.91
2018-09-25T23:14:04.611Z,102994.00
2018-09-25T23:17:14.533Z,102991.75
2018-09-25T23:20:24.008Z,102984.91
2018-09-25T23:23:33.501Z,102972.33
2018-09-25T23:26:42.933Z,102955.21
2018-09-25T23:29:52.381Z,102958.37
2018-09-25T23:33:01.856Z,102958.54
2018-09-25T23:36:11.509Z,102947.89
2018-09-25T23:39:21.117Z,102941.39
2018-09-25T23:42:29.977Z,102937.49
2018-09-25T23:45:39.600Z,102922.31
2018-09-25T23:48:51.978Z,102908.48
2018-09-25T23:53:00.326Z,102902.40
2018-09-25T23:56:09.908Z,102889.25
2018-09-25T23:59:20.149Z,102886.66
